Time;durP1;ratioP1;P1;durP2;ratioP2;P2;SDS_P1;SDS_P2;PMS_P1;PMS_P2;Temp;Humidity;BMP_temperature;BMP_pressure;BME280_temperature;BME280_humidity;BME280_pressure;Samples;Min_cycle;Max_cycle;Signal;HPM_P1;HPM_P2
2023/09/14 00:01:11;;;;;;;1.00;0.40;;;23.10;47.60;;;;;;4975234;28;20944;-49
2023/09/14 00:03:37;;;;;;;1.00;0.40;;;23.10;47.80;;;;;;4975671;28;20443;-49
2023/09/14 00:06:03;;;;;;;1.10;0.40;;;23.00;47.60;;;;;;4975545;28;20206;-50
2023/09/14 00:08:30;;;;;;;1.30;0.50;;;22.90;47.60;;;;;;4975529;28;20283;-51
2023/09/14 00:10:58;;;;;;;1.00;0.50;;;22.90;47.70;;;;;;4975549;28;20416;-50
2023/09/14 00:13:24;;;;;;;1.00;0.27;;;22.90;47.90;;;;;;4973980;28;20758;-49
2023/09/14 00:15:50;;;;;;;1.20;0.70;;;22.90;48.20;;;;;;4975125;28;20431;-48
2023/09/14 00:18:16;;;;;;;1.40;0.50;;;22.90;48.50;;;;;;4975187;28;20919;-49
2023/09/14 00:20:42;;;;;;;1.00;0.40;;;22.80;48.10;;;;;;4975028;28;20459;-49
2023/09/14 00:23:08;;;;;;;1.00;0.40;;;22.80;48.10;;;;;;4975289;28;20276;-50
2023/09/14 00:25:33;;;;;;;1.53;0.60;;;22.80;48.20;;;;;;4974576;28;20749;-50
2023/09/14 00:27:59;;;;;;;2.07;0.97;;;22.80;48.20;;;;;;4975062;28;20176;-49
2023/09/14 00:30:25;;;;;;;1.00;0.40;;;22.70;47.90;;;;;;4974858;28;20233;-49
2023/09/14 00:32:52;;;;;;;2.23;2.03;;;22.70;47.80;;;;;;4975020;28;20506;-48
2023/09/14 00:35:19;;;;;;;2.17;0.70;;;22.70;47.80;;;;;;4974962;28;20180;-50
2023/09/14 00:37:45;;;;;;;1.30;0.60;;;22.70;47.80;;;;;;4974870;28;20423;-50
2023/09/14 00:40:13;;;;;;;1.00;0.40;;;22.70;47.80;;;;;;4974758;28;20459;-47
2023/09/14 00:42:43;;;;;;;1.30;0.80;;;22.70;47.60;;;;;;4974581;28;20910;-50
2023/09/14 00:45:14;;;;;;;1.00;0.50;;;22.70;47.50;;;;;;4974781;28;20403;-50
2023/09/14 00:47:47;;;;;;;1.10;0.40;;;22.60;47.10;;;;;;4974890;28;20415;-49
2023/09/14 00:50:15;;;;;;;1.30;0.70;;;22.50;47.00;;;;;;4974673;28;20408;-49
2023/09/14 00:52:41;;;;;;;1.20;0.67;;;22.40;47.00;;;;;;4974465;28;20411;-50
2023/09/14 00:55:08;;;;;;;3.10;1.23;;;22.30;47.10;;;;;;4974597;28;20474;-49
2023/09/14 00:57:36;;;;;;;1.10;0.50;;;22.20;47.10;;;;;;4974179;28;20964;-50
2023/09/14 01:00:10;;;;;;;1.00;0.40;;;22.30;47.10;;;;;;4974558;28;20456;-47
2023/09/14 01:02:37;;;;;;;1.10;0.57;;;22.20;47.00;;;;;;4974379;28;20414;-49
2023/09/14 01:05:03;;;;;;;1.53;0.67;;;22.20;47.10;;;;;;4974322;28;20493;-49
2023/09/14 01:07:29;;;;;;;1.47;0.80;;;22.10;46.80;;;;;;4974334;28;20463;-49
2023/09/14 01:09:56;;;;;;;1.10;0.60;;;22.10;47.10;;;;;;4974179;28;20513;-48
2023/09/14 01:12:21;;;;;;;1.10;0.50;;;22.10;47.10;;;;;;4973906;28;20271;-49
2023/09/14 01:15:05;;;;;;;3.90;0.60;;;22.10;47.20;;;;;;4974354;28;20450;-50
2023/09/14 01:17:53;;;;;;;1.20;0.83;;;22.10;47.00;;;;;;4974006;28;20513;-49
2023/09/14 01:20:24;;;;;;;1.30;0.70;;;22.20;47.10;;;;;;4973879;28;20581;-49
2023/09/14 01:23:08;;;;;;;1.10;0.50;;;22.20;46.90;;;;;;4974108;28;20466;-50
2023/09/14 01:25:45;;;;;;;1.10;0.40;;;22.20;46.70;;;;;;4973842;28;20582;-49
2023/09/14 01:28:13;;;;;;;1.10;0.70;;;22.30;46.70;;;;;;4973921;28;21005;-49
2023/09/14 01:30:39;;;;;;;1.50;0.93;;;22.30;46.80;;;;;;4973659;28;20466;-50
2023/09/14 01:33:10;;;;;;;1.00;0.40;;;22.20;46.70;;;;;;4973701;28;20407;-50
2023/09/14 01:36:00;;;;;;;1.00;0.37;;;22.30;46.70;;;;;;4973724;28;20424;-48
2023/09/14 01:38:29;;;;;;;2.27;0.57;;;22.30;46.60;;;;;;4973114;28;20457;-49
2023/09/14 01:40:55;;;;;;;1.00;0.40;;;22.30;46.50;;;;;;4973491;28;20463;-50
2023/09/14 01:43:21;;;;;;;2.80;0.77;;;22.30;46.50;;;;;;4973569;28;20431;-50
2023/09/14 01:45:47;;;;;;;1.57;0.67;;;22.20;46.50;;;;;;4973569;28;20498;-50
2023/09/14 01:48:17;;;;;;;1.60;0.97;;;22.20;46.80;;;;;;4973786;28;20176;-49
2023/09/14 01:50:43;;;;;;;1.10;0.53;;;22.20;46.60;;;;;;4973429;28;20415;-50
2023/09/14 01:53:10;;;;;;;1.20;0.53;;;22.10;46.70;;;;;;4973825;28;20418;-50
2023/09/14 01:55:36;;;;;;;1.03;0.43;;;22.10;46.70;;;;;;4973400;28;20430;-50
2023/09/14 01:58:02;;;;;;;1.10;0.40;;;22.20;46.80;;;;;;4973387;28;20412;-49
2023/09/14 02:00:27;;;;;;;1.10;0.40;;;22.10;46.60;;;;;;4973473;28;20977;-50
2023/09/14 02:02:53;;;;;;;1.07;0.47;;;22.10;46.30;;;;;;4973179;28;20783;-48
2023/09/14 02:05:19;;;;;;;1.10;0.50;;;22.10;46.40;;;;;;4973270;28;20168;-49
2023/09/14 02:07:46;;;;;;;1.50;0.60;;;22.10;46.60;;;;;;4973410;28;20179;-49
2023/09/14 02:10:12;;;;;;;1.30;0.63;;;22.00;46.80;;;;;;4973253;28;20415;-49
2023/09/14 02:12:38;;;;;;;1.10;0.70;;;22.00;46.70;;;;;;4972950;28;20546;-49
2023/09/14 02:15:04;;;;;;;1.10;0.50;;;22.00;46.80;;;;;;4973472;28;21000;-49
2023/09/14 02:17:30;;;;;;;1.50;0.67;;;22.00;46.90;;;;;;4973102;28;20204;-49
2023/09/14 02:19:56;;;;;;;1.20;0.80;;;22.00;46.80;;;;;;4973165;28;20458;-48
2023/09/14 02:22:22;;;;;;;1.00;0.30;;;22.00;46.90;;;;;;4972902;28;20411;-49
2023/09/14 02:24:48;;;;;;;1.40;0.57;;;22.00;47.10;;;;;;4973162;28;20471;-50
2023/09/14 02:27:14;;;;;;;1.00;0.40;;;22.00;46.90;;;;;;4972891;28;20534;-48
2023/09/14 02:29:39;;;;;;;1.50;0.83;;;22.00;46.90;;;;;;4973115;28;20259;-49
2023/09/14 02:32:07;;;;;;;1.00;0.40;;;22.00;46.70;;;;;;4972856;28;20188;-49
2023/09/14 02:34:32;;;;;;;1.10;0.60;;;21.90;46.30;;;;;;4973162;28;20187;-49
2023/09/14 02:36:58;;;;;;;1.20;0.67;;;21.90;46.30;;;;;;4972958;28;20431;-49
2023/09/14 02:39:24;;;;;;;1.10;0.50;;;21.80;46.00;;;;;;4972914;28;20199;-50
2023/09/14 02:41:49;;;;;;;1.10;0.40;;;21.70;46.10;;;;;;4972698;28;20204;-50
2023/09/14 02:44:15;;;;;;;1.00;0.30;;;21.70;46.00;;;;;;4972974;28;20251;-48
2023/09/14 02:46:41;;;;;;;1.00;0.40;;;21.70;45.80;;;;;;4972974;28;20974;-49
2023/09/14 02:49:06;;;;;;;1.10;0.50;;;21.70;45.90;;;;;;4975131;28;20175;-48
2023/09/14 02:51:32;;;;;;;1.10;0.43;;;21.60;45.80;;;;;;4976573;28;20172;-49
2023/09/14 02:53:58;;;;;;;1.90;1.00;;;21.60;45.60;;;;;;4976742;28;20172;-50
2023/09/14 02:56:23;;;;;;;1.20;0.60;;;21.60;45.80;;;;;;4976573;28;20188;-49
2023/09/14 02:58:52;;;;;;;1.10;0.57;;;21.50;45.90;;;;;;4976773;28;20239;-49
2023/09/14 03:01:20;;;;;;;1.10;0.50;;;21.50;45.60;;;;;;4976617;28;20263;-48
2023/09/14 03:03:47;;;;;;;1.07;0.50;;;21.50;45.80;;;;;;4976531;28;20443;-50
2023/09/14 03:06:13;;;;;;;1.03;0.50;;;21.50;45.90;;;;;;4976506;28;20526;-48
2023/09/14 03:08:39;;;;;;;1.10;0.50;;;21.50;45.90;;;;;;4976409;28;20419;-48
2023/09/14 03:11:05;;;;;;;2.23;0.50;;;21.50;45.80;;;;;;4976185;28;20820;-48
2023/09/14 03:13:31;;;;;;;1.10;0.40;;;21.50;45.50;;;;;;4976605;28;20258;-49
2023/09/14 03:15:58;;;;;;;1.90;0.57;;;21.40;45.50;;;;;;4976231;28;20431;-49
2023/09/14 03:18:24;;;;;;;1.20;0.60;;;21.30;45.50;;;;;;4976379;28;20469;-50
2023/09/14 03:20:54;;;;;;;1.60;0.70;;;21.30;45.60;;;;;;4976018;28;20454;-50
2023/09/14 03:23:21;;;;;;;1.10;0.50;;;21.30;45.90;;;;;;4976097;28;20403;-49
2023/09/14 03:25:48;;;;;;;1.10;0.60;;;21.20;45.90;;;;;;4976113;28;20447;-48
2023/09/14 03:28:14;;;;;;;1.10;0.77;;;21.20;46.00;;;;;;4976058;28;20945;-51
2023/09/14 03:30:40;;;;;;;1.00;0.30;;;21.10;45.70;;;;;;4975990;28;20426;-49
2023/09/14 03:33:07;;;;;;;1.00;0.30;;;21.10;46.00;;;;;;4976130;28;20933;-51
2023/09/14 03:35:32;;;;;;;1.33;0.60;;;21.10;45.80;;;;;;4975917;28;20939;-49
2023/09/14 03:37:58;;;;;;;1.97;0.77;;;21.10;46.00;;;;;;4975895;28;20418;-49
2023/09/14 03:40:24;;;;;;;3.13;1.07;;;21.10;45.80;;;;;;4975876;28;20220;-51
2023/09/14 03:42:50;;;;;;;1.50;0.83;;;21.10;46.50;;;;;;4975860;28;20403;-49
2023/09/14 03:45:16;;;;;;;1.10;0.50;;;21.20;45.60;;;;;;4975780;28;20172;-47
2023/09/14 03:47:42;;;;;;;1.00;0.37;;;21.20;45.50;;;;;;4975803;28;20183;-48
2023/09/14 03:50:09;;;;;;;1.40;0.70;;;21.20;45.50;;;;;;4975771;28;20415;-49
2023/09/14 03:52:35;;;;;;;1.00;0.30;;;21.20;45.20;;;;;;4975448;28;20418;-49
2023/09/14 03:55:02;;;;;;;1.00;0.40;;;21.20;45.40;;;;;;4975611;28;20411;-49
2023/09/14 03:57:29;;;;;;;8.63;0.90;;;21.30;45.50;;;;;;4975855;28;20453;-48
2023/09/14 03:59:55;;;;;;;1.57;1.03;;;21.30;45.30;;;;;;4974670;28;20459;-49
2023/09/14 04:02:21;;;;;;;1.37;1.00;;;21.30;45.20;;;;;;4975472;28;20399;-51
2023/09/14 04:04:46;;;;;;;3.00;0.90;;;21.30;45.40;;;;;;4975527;28;20399;-50
2023/09/14 04:07:12;;;;;;;1.00;0.50;;;21.30;45.40;;;;;;4975575;28;20420;-48
2023/09/14 04:09:38;;;;;;;1.00;0.50;;;21.30;45.20;;;;;;4975388;28;20176;-49
2023/09/14 04:12:04;;;;;;;1.10;0.60;;;21.40;45.20;;;;;;4975315;28;20176;-49
2023/09/14 04:14:30;;;;;;;1.40;0.50;;;21.40;44.60;;;;;;4975382;28;20909;-48
2023/09/14 04:16:57;;;;;;;1.50;0.63;;;21.30;44.80;;;;;;4975205;28;20463;-48
2023/09/14 04:19:24;;;;;;;0.97;0.37;;;21.30;45.10;;;;;;4975153;28;20490;-49
2023/09/14 04:21:50;;;;;;;1.03;0.40;;;21.30;45.30;;;;;;4974861;28;20450;-49
2023/09/14 04:24:15;;;;;;;0.90;0.30;;;21.30;45.30;;;;;;4975037;28;20407;-51
2023/09/14 04:26:41;;;;;;;1.00;0.40;;;21.30;45.30;;;;;;4974855;28;20222;-50
2023/09/14 04:29:07;;;;;;;1.10;0.60;;;21.30;45.40;;;;;;4975108;28;20168;-49
2023/09/14 04:31:34;;;;;;;1.10;0.50;;;21.30;45.30;;;;;;4974841;28;20276;-50
2023/09/14 04:34:00;;;;;;;2.50;1.07;;;21.30;45.10;;;;;;4974947;28;20168;-48
2023/09/14 04:36:26;;;;;;;1.20;0.50;;;21.20;45.00;;;;;;4974742;28;20773;-48
2023/09/14 04:38:51;;;;;;;1.03;0.47;;;21.20;45.30;;;;;;4975044;28;20205;-50
2023/09/14 04:41:17;;;;;;;1.10;0.63;;;21.10;45.40;;;;;;4974541;28;20203;-50
2023/09/14 04:43:43;;;;;;;4.40;0.90;;;21.10;45.40;;;;;;4974883;28;20554;-48
2023/09/14 04:46:09;;;;;;;1.10;0.47;;;21.10;45.50;;;;;;4974754;28;20191;-48
2023/09/14 04:48:37;;;;;;;1.10;0.63;;;21.10;45.50;;;;;;4974723;28;20173;-48
2023/09/14 04:51:03;;;;;;;1.30;0.70;;;21.10;45.40;;;;;;4974352;28;20928;-50
2023/09/14 04:53:30;;;;;;;1.10;0.50;;;21.10;45.90;;;;;;4974693;28;20411;-50
2023/09/14 04:55:56;;;;;;;1.30;0.97;;;20.90;45.70;;;;;;4974570;28;20439;-49
2023/09/14 04:58:22;;;;;;;1.10;0.63;;;20.90;45.80;;;;;;4974524;28;20526;-50
2023/09/14 05:00:49;;;;;;;1.10;0.60;;;20.80;46.00;;;;;;4974171;28;21028;-50
2023/09/14 05:03:15;;;;;;;1.00;0.50;;;20.80;46.20;;;;;;4974308;28;20412;-52
2023/09/14 05:05:42;;;;;;;1.60;1.23;;;20.80;46.30;;;;;;4974549;28;20467;-48
2023/09/14 05:08:08;;;;;;;1.20;0.70;;;20.80;47.30;;;;;;4974284;28;20463;-50
2023/09/14 05:10:34;;;;;;;2.40;1.47;;;20.80;46.40;;;;;;4974317;28;20420;-50
2023/09/14 05:12:59;;;;;;;1.10;0.50;;;20.80;46.50;;;;;;4974177;28;20412;-48
2023/09/14 05:15:25;;;;;;;1.20;0.70;;;20.80;46.30;;;;;;4974190;28;20418;-47
2023/09/14 05:17:51;;;;;;;1.20;0.60;;;20.80;46.20;;;;;;4974065;28;20411;-50
2023/09/14 05:20:17;;;;;;;4.03;0.63;;;20.80;46.30;;;;;;4974285;28;20660;-48
2023/09/14 05:22:43;;;;;;;1.40;0.63;;;20.80;46.00;;;;;;4973810;28;20180;-47
2023/09/14 05:25:09;;;;;;;1.07;0.53;;;20.90;46.00;;;;;;4974100;28;20530;-50
2023/09/14 05:27:38;;;;;;;1.10;0.60;;;20.80;45.90;;;;;;4973966;28;20876;-46
2023/09/14 05:30:06;;;;;;;1.57;1.30;;;20.90;46.60;;;;;;4973854;28;20404;-51
2023/09/14 05:32:32;;;;;;;1.93;1.60;;;20.80;46.30;;;;;;4973547;28;20411;-51
2023/09/14 05:34:58;;;;;;;1.10;0.50;;;20.80;46.30;;;;;;4974046;28;20971;-47
2023/09/14 05:37:23;;;;;;;1.37;0.60;;;20.80;46.50;;;;;;4973844;28;20200;-47
2023/09/14 05:39:49;;;;;;;1.43;0.70;;;20.80;46.30;;;;;;4973728;28;21033;-50
2023/09/14 05:42:16;;;;;;;1.10;0.50;;;20.80;46.40;;;;;;4973521;28;20175;-48
2023/09/14 05:44:41;;;;;;;1.13;0.57;;;20.80;46.50;;;;;;4973746;28;20250;-50
2023/09/14 05:47:07;;;;;;;1.00;0.40;;;20.80;46.70;;;;;;4973563;28;20855;-47
2023/09/14 05:49:33;;;;;;;1.93;0.80;;;20.80;46.70;;;;;;4973620;28;20223;-48
2023/09/14 05:51:58;;;;;;;1.67;1.57;;;20.90;46.70;;;;;;4973305;28;20582;-49
2023/09/14 05:54:24;;;;;;;1.10;0.50;;;20.80;46.90;;;;;;4973698;28;20180;-49
2023/09/14 05:56:50;;;;;;;1.10;0.40;;;20.80;46.90;;;;;;4973602;28;20196;-52
2023/09/14 05:59:16;;;;;;;1.67;0.93;;;20.80;47.20;;;;;;4973428;28;20316;-48
2023/09/14 06:01:42;;;;;;;1.10;0.57;;;20.80;47.20;;;;;;4973127;28;20195;-47
2023/09/14 06:04:08;;;;;;;1.60;0.50;;;20.80;47.20;;;;;;4973708;28;20407;-49
2023/09/14 06:06:34;;;;;;;1.10;0.50;;;20.80;47.40;;;;;;4973464;28;21172;-48
2023/09/14 06:09:00;;;;;;;1.43;0.60;;;20.70;47.80;;;;;;4973459;28;20805;-48
2023/09/14 06:11:28;;;;;;;1.30;0.60;;;20.70;47.80;;;;;;4973180;28;20164;-48
2023/09/14 06:13:54;;;;;;;1.10;0.53;;;20.70;48.10;;;;;;4973339;28;20168;-47
2023/09/14 06:16:20;;;;;;;1.20;0.60;;;20.70;48.10;;;;;;4973131;28;20534;-49
2023/09/14 06:18:46;;;;;;;1.20;0.57;;;20.80;48.20;;;;;;4973298;28;20519;-48
2023/09/14 06:21:12;;;;;;;2.00;1.50;;;20.80;48.10;;;;;;4973091;28;20236;-48
2023/09/14 06:23:40;;;;;;;1.10;0.60;;;20.90;47.90;;;;;;4972880;28;20803;-49
2023/09/14 06:26:06;;;;;;;4.50;1.00;;;20.90;48.00;;;;;;4973067;28;20825;-48
2023/09/14 06:28:32;;;;;;;1.00;0.30;;;20.90;47.90;;;;;;4973174;28;20406;-48
2023/09/14 06:30:59;;;;;;;1.00;0.50;;;20.90;48.70;;;;;;4972820;28;20415;-50
2023/09/14 06:33:25;;;;;;;1.40;0.70;;;21.00;47.80;;;;;;4973100;28;20199;-47
2023/09/14 06:35:50;;;;;;;1.20;0.90;;;21.00;48.00;;;;;;4972998;28;20523;-51
2023/09/14 06:38:16;;;;;;;1.00;0.50;;;21.00;48.20;;;;;;4973158;28;20200;-47
2023/09/14 06:40:42;;;;;;;1.57;0.70;;;21.00;48.10;;;;;;4972865;28;20567;-51
2023/09/14 06:43:08;;;;;;;1.10;0.50;;;20.90;47.10;;;;;;4973000;28;20659;-48
2023/09/14 06:45:33;;;;;;;1.20;0.60;;;20.90;47.40;;;;;;4972873;28;20207;-48
2023/09/14 06:48:00;;;;;;;2.30;0.80;;;20.90;47.20;;;;;;4973242;28;20172;-48
2023/09/14 06:50:26;;;;;;;1.00;0.50;;;20.90;47.10;;;;;;4972876;28;20436;-50
2023/09/14 06:52:51;;;;;;;1.40;0.93;;;20.80;47.00;;;;;;4972720;28;20821;-47
2023/09/14 06:55:17;;;;;;;1.43;0.57;;;20.80;47.10;;;;;;4972906;28;20502;-51
2023/09/14 06:57:43;;;;;;;1.73;0.77;;;20.80;47.10;;;;;;4972906;28;20199;-48
2023/09/14 07:00:14;;;;;;;3.07;1.63;;;20.80;47.10;;;;;;4973263;28;20236;-51
2023/09/14 07:02:40;;;;;;;1.17;0.70;;;20.70;47.20;;;;;;4972616;28;20176;-51
2023/09/14 07:05:06;;;;;;;2.17;1.40;;;20.70;46.80;;;;;;4972974;28;20470;-48
2023/09/14 07:07:31;;;;;;;1.17;0.87;;;20.70;47.30;;;;;;4972685;28;20427;-50
2023/09/14 07:09:57;;;;;;;1.33;1.00;;;20.70;47.20;;;;;;4972871;28;20262;-48
2023/09/14 07:12:23;;;;;;;1.20;0.70;;;20.70;47.10;;;;;;4972408;28;20255;-50
2023/09/14 07:14:49;;;;;;;1.20;0.50;;;20.70;47.20;;;;;;4972789;28;20304;-50
2023/09/14 07:17:16;;;;;;;1.30;0.50;;;20.80;47.10;;;;;;4972660;28;20199;-47
2023/09/14 07:19:42;;;;;;;1.20;0.80;;;20.80;47.80;;;;;;4972728;28;20512;-51
2023/09/14 07:22:08;;;;;;;1.40;0.87;;;20.80;46.60;;;;;;4972462;28;20902;-50
2023/09/14 07:24:33;;;;;;;1.27;0.67;;;20.80;46.70;;;;;;4972628;28;20168;-49
2023/09/14 07:26:59;;;;;;;1.50;1.00;;;20.80;46.80;;;;;;4972589;28;20505;-47
2023/09/14 07:29:26;;;;;;;1.10;0.60;;;20.90;46.80;;;;;;4972730;28;20208;-49
2023/09/14 07:31:52;;;;;;;1.40;0.87;;;20.90;46.80;;;;;;4972301;28;20659;-49
2023/09/14 07:34:18;;;;;;;1.00;0.40;;;20.90;46.70;;;;;;4972641;28;20414;-49
2023/09/14 07:36:43;;;;;;;1.40;0.77;;;20.90;46.60;;;;;;4975344;28;20529;-50
2023/09/14 07:39:09;;;;;;;1.30;0.70;;;20.90;46.10;;;;;;4975956;28;20172;-49
2023/09/14 07:41:35;;;;;;;1.77;1.47;;;20.80;45.90;;;;;;4975617;28;20199;-48
2023/09/14 07:44:02;;;;;;;1.20;0.70;;;20.80;46.30;;;;;;4976123;28;20172;-50
2023/09/14 07:46:27;;;;;;;1.53;0.87;;;20.80;46.60;;;;;;4975941;28;20196;-47
2023/09/14 07:48:53;;;;;;;1.17;0.60;;;20.80;46.50;;;;;;4975794;28;20960;-47
2023/09/14 07:51:19;;;;;;;1.20;0.60;;;20.90;46.40;;;;;;4975547;28;20202;-49
2023/09/14 07:53:45;;;;;;;1.70;0.83;;;20.90;46.50;;;;;;4975716;28;20176;-49
2023/09/14 07:56:10;;;;;;;1.13;0.70;;;20.90;46.30;;;;;;4975634;28;20199;-48
2023/09/14 07:58:36;;;;;;;1.37;0.90;;;20.90;46.00;;;;;;4975601;28;20172;-50
2023/09/14 08:01:02;;;;;;;1.40;0.97;;;20.90;46.10;;;;;;4975330;28;20196;-48
2023/09/14 08:03:28;;;;;;;1.03;0.40;;;20.90;46.10;;;;;;4974257;28;20172;-47
2023/09/14 08:05:54;;;;;;;2.37;0.80;;;20.90;46.20;;;;;;4975400;28;20698;-48
2023/09/14 08:08:20;;;;;;;2.00;0.83;;;20.90;46.30;;;;;;4975494;28;20403;-51
2023/09/14 08:10:53;;;;;;;1.13;0.60;;;20.90;46.20;;;;;;4975258;28;20795;-50
2023/09/14 08:13:20;;;;;;;1.93;0.87;;;21.00;46.20;;;;;;4975335;28;20665;-47
2023/09/14 08:15:46;;;;;;;1.33;1.13;;;20.90;45.80;;;;;;4975178;28;20438;-49
2023/09/14 08:18:12;;;;;;;1.30;0.67;;;21.00;46.30;;;;;;4975154;28;20910;-49
2023/09/14 08:20:44;;;;;;;1.10;0.57;;;21.00;46.30;;;;;;4974955;28;20475;-47
2023/09/14 08:23:12;;;;;;;2.30;1.05;;;20.60;45.50;;;;;;4975168;28;20254;-49
2023/09/14 08:25:43;;;;;;;1.30;0.60;;;21.00;45.50;;;;;;4974880;28;20769;-47
2023/09/14 08:28:19;;;;;;;2.70;1.43;;;21.00;45.60;;;;;;4975273;28;20402;-49
2023/09/14 08:30:46;;;;;;;1.03;0.50;;;21.10;46.00;;;;;;4974789;28;20458;-51
2023/09/14 08:33:12;;;;;;;1.30;0.60;;;21.10;45.70;;;;;;4975004;28;20411;-48
2023/09/14 08:35:39;;;;;;;3.10;1.43;;;21.10;44.90;;;;;;4974786;28;20937;-48
2023/09/14 08:38:05;;;;;;;1.50;0.70;;;21.10;45.40;;;;;;4974864;28;20411;-51
2023/09/14 08:40:31;;;;;;;1.10;0.53;;;21.10;45.60;;;;;;4974666;28;20973;-49
2023/09/14 08:42:59;;;;;;;1.50;0.80;;;21.20;45.30;;;;;;4974758;28;20810;-49
2023/09/14 08:45:30;;;;;;;1.00;0.43;;;21.30;44.50;;;;;;4973549;28;20411;-51
2023/09/14 08:47:57;;;;;;;1.10;0.50;;;21.30;44.20;;;;;;4974437;28;20812;-49
2023/09/14 08:50:25;;;;;;;1.20;0.57;;;21.30;44.70;;;;;;4974531;28;20485;-49
2023/09/14 08:52:52;;;;;;;2.10;1.10;;;21.30;44.90;;;;;;4974650;28;20901;-52
2023/09/14 08:55:19;;;;;;;1.10;0.60;;;21.30;45.00;;;;;;4973445;28;20408;-48
2023/09/14 08:57:46;;;;;;;1.20;0.70;;;21.40;44.50;;;;;;4974534;28;20404;-49
2023/09/14 09:00:17;;;;;;;1.00;0.40;;;21.40;44.50;;;;;;4974479;28;20833;-48
2023/09/14 09:02:45;;;;;;;2.57;1.20;;;21.40;44.70;;;;;;4974226;28;20404;-50
2023/09/14 09:05:13;;;;;;;1.50;0.70;;;21.50;45.00;;;;;;4974342;28;20411;-48
2023/09/14 09:07:40;;;;;;;2.10;0.90;;;21.50;44.90;;;;;;4974273;28;20438;-48
2023/09/14 09:10:28;;;;;;;4.67;2.20;;;21.50;44.40;;;;;;4974416;28;20412;-52
2023/09/14 09:12:58;;;;;;;2.10;1.20;;;21.40;44.20;;;;;;4973694;28;20432;-51
2023/09/14 09:15:26;;;;;;;1.10;0.60;;;21.40;44.80;;;;;;4973986;28;20408;-50
2023/09/14 09:17:53;;;;;;;1.37;0.67;;;21.50;45.00;;;;;;4974349;28;20567;-48
2023/09/14 09:20:22;;;;;;;1.50;0.67;;;21.50;44.90;;;;;;4974083;28;20458;-49
2023/09/14 09:22:55;;;;;;;1.70;0.83;;;21.50;44.80;;;;;;4973821;28;20411;-50
2023/09/14 09:25:22;;;;;;;1.70;1.50;;;21.60;44.40;;;;;;4973834;28;20442;-51
2023/09/14 09:28:00;;;;;;;2.07;1.33;;;21.60;44.50;;;;;;4973993;28;20502;-50
2023/09/14 09:30:30;;;;;;;2.03;0.60;;;21.60;44.50;;;;;;4973906;28;20399;-49
2023/09/14 09:32:56;;;;;;;2.10;1.60;;;21.70;44.30;;;;;;4973682;28;20410;-51
2023/09/14 09:35:24;;;;;;;3.20;1.20;;;21.70;44.40;;;;;;4973748;28;20806;-51
2023/09/14 09:37:50;;;;;;;1.20;0.90;;;21.80;44.60;;;;;;4973863;28;20411;-48
2023/09/14 09:40:21;;;;;;;1.77;1.47;;;21.90;44.50;;;;;;4973640;28;20446;-48
2023/09/14 09:42:48;;;;;;;1.20;0.80;;;22.00;44.10;;;;;;4973767;28;20514;-47
2023/09/14 09:45:14;;;;;;;1.17;0.83;;;22.10;44.50;;;;;;4973739;28;20411;-48
2023/09/14 09:47:41;;;;;;;1.40;0.80;;;22.20;44.40;;;;;;4973649;28;20767;-51
2023/09/14 09:50:14;;;;;;;2.13;1.37;;;22.20;43.70;;;;;;4973662;28;20403;-47
2023/09/14 09:52:42;;;;;;;1.00;0.50;;;22.20;43.20;;;;;;4973369;28;20494;-48
2023/09/14 09:55:22;;;;;;;1.37;1.03;;;22.30;43.70;;;;;;4973530;28;20400;-51
2023/09/14 09:57:57;;;;;;;1.30;1.07;;;22.20;43.40;;;;;;4972978;28;20404;-48
2023/09/14 10:00:31;;;;;;;1.43;0.93;;;22.20;43.00;;;;;;4973239;28;20458;-51
2023/09/14 10:02:58;;;;;;;1.20;0.70;;;22.30;43.50;;;;;;4973376;28;20417;-50
2023/09/14 10:05:31;;;;;;;1.53;0.70;;;22.30;43.20;;;;;;4973252;28;20410;-47
2023/09/14 10:07:58;;;;;;;1.37;0.93;;;22.30;42.90;;;;;;4972395;28;20491;-48
2023/09/14 10:10:28;;;;;;;1.10;0.60;;;22.40;43.50;;;;;;4973635;28;20458;-50
2023/09/14 10:12:55;;;;;;;2.37;1.27;;;22.50;43.20;;;;;;4973236;28;20785;-48
2023/09/14 10:15:24;;;;;;;1.20;0.60;;;22.50;42.90;;;;;;4973191;28;20427;-48
2023/09/14 10:17:53;;;;;;;2.00;1.33;;;22.60;42.60;;;;;;4973159;28;20407;-50
2023/09/14 10:20:20;;;;;;;1.47;1.33;;;22.60;42.20;;;;;;4973161;28;20462;-48
2023/09/14 10:22:48;;;;;;;1.07;0.50;;;22.60;40.80;;;;;;4973230;28;20411;-49
2023/09/14 10:25:15;;;;;;;1.20;0.53;;;22.60;41.50;;;;;;4972951;28;20414;-50
2023/09/14 10:27:42;;;;;;;1.30;0.70;;;22.50;41.30;;;;;;4973118;28;20754;-49
2023/09/14 10:30:13;;;;;;;1.40;0.90;;;22.60;42.00;;;;;;4973115;28;20509;-48
2023/09/14 10:32:39;;;;;;;2.70;1.30;;;22.60;41.30;;;;;;4972884;28;20539;-51
2023/09/14 10:35:07;;;;;;;1.67;0.97;;;22.60;41.80;;;;;;4973328;28;20494;-48
2023/09/14 10:37:35;;;;;;;3.30;1.10;;;22.60;39.80;;;;;;4972939;28;21027;-49
2023/09/14 10:40:06;;;;;;;1.63;1.03;;;22.60;41.00;;;;;;4973126;28;20825;-47
2023/09/14 10:42:31;;;;;;;1.10;0.60;;;22.70;41.80;;;;;;4972979;28;20419;-49
2023/09/14 10:44:57;;;;;;;1.10;0.70;;;22.80;41.30;;;;;;4972985;28;20963;-52
2023/09/14 10:47:27;;;;;;;1.60;1.50;;;22.90;41.50;;;;;;4973235;28;20574;-48
2023/09/14 10:49:54;;;;;;;1.30;0.90;;;23.00;41.20;;;;;;4973085;28;20898;-48
2023/09/14 10:52:28;;;;;;;1.20;0.80;;;23.20;41.30;;;;;;4972847;28;20478;-49
2023/09/14 10:54:55;;;;;;;1.17;0.70;;;23.30;41.50;;;;;;4972951;28;20976;-48
2023/09/14 10:57:24;;;;;;;1.10;0.50;;;23.40;41.00;;;;;;4972862;28;20486;-48
2023/09/14 10:59:54;;;;;;;1.00;0.40;;;23.50;40.90;;;;;;4972818;28;20481;-51
2023/09/14 11:02:39;;;;;;;1.23;0.73;;;23.70;39.90;;;;;;4972603;28;20940;-48
2023/09/14 11:05:14;;;;;;;1.20;0.73;;;23.70;38.90;;;;;;4972906;28;20490;-50
2023/09/14 11:07:41;;;;;;;1.10;0.60;;;23.70;39.40;;;;;;4972796;28;20473;-48
2023/09/14 11:10:09;;;;;;;1.20;0.60;;;23.70;39.90;;;;;;4974786;28;20415;-50
2023/09/14 11:12:35;;;;;;;1.37;0.70;;;23.90;40.40;;;;;;4976407;28;20447;-49
2023/09/14 11:15:22;;;;;;;1.10;0.50;;;24.00;39.80;;;;;;4976425;28;20408;-48
2023/09/14 11:17:52;;;;;;;1.10;0.70;;;24.20;40.10;;;;;;4976423;28;20415;-48
2023/09/14 11:20:24;;;;;;;1.30;0.70;;;24.30;39.60;;;;;;4976273;28;20494;-51
2023/09/14 11:22:51;;;;;;;1.40;0.90;;;24.40;38.80;;;;;;4976078;28;20407;-48
2023/09/14 11:25:37;;;;;;;1.23;0.67;;;24.40;37.20;;;;;;4976262;28;20813;-48
2023/09/14 11:28:07;;;;;;;1.30;0.80;;;24.40;38.30;;;;;;4976223;28;20500;-51
2023/09/14 11:30:41;;;;;;;1.07;0.53;;;24.40;38.00;;;;;;4976148;28;20821;-48
2023/09/14 11:33:08;;;;;;;1.73;0.80;;;24.40;38.00;;;;;;4976036;28;20494;-51
2023/09/14 11:35:38;;;;;;;1.30;0.80;;;24.50;38.80;;;;;;4975975;28;20912;-50
2023/09/14 11:38:14;;;;;;;1.47;0.53;;;24.60;38.80;;;;;;4976124;28;20419;-48
2023/09/14 11:40:39;;;;;;;1.63;0.83;;;24.60;37.80;;;;;;4975871;28;20476;-50
2023/09/14 11:43:38;;;;;;;1.70;1.47;;;24.60;37.50;;;;;;4975906;28;20929;-51
2023/09/14 11:45:58;;;;;;;1.17;0.60;;;24.70;37.20;;;;;;4974671;28;20441;-48
2023/09/14 11:48:28;;;;;;;1.70;0.73;;;24.80;35.70;;;;;;4975835;28;20419;-48
2023/09/14 11:50:56;;;;;;;1.00;0.40;;;24.80;37.70;;;;;;4975716;28;20423;-50
2023/09/14 11:53:22;;;;;;;1.67;0.93;;;24.80;37.00;;;;;;4975700;28;20414;-53
2023/09/14 11:55:49;;;;;;;1.77;0.97;;;24.90;37.50;;;;;;4975578;28;20446;-49
2023/09/14 11:58:16;;;;;;;1.30;0.50;;;24.90;35.30;;;;;;4975783;28;20408;-50
2023/09/14 12:00:54;;;;;;;2.03;1.80;;;24.90;37.00;;;;;;4975401;28;20451;-53
2023/09/14 12:03:21;;;;;;;1.23;0.90;;;25.00;36.90;;;;;;4975728;28;20542;-49
2023/09/14 12:05:51;;;;;;;1.10;0.60;;;24.90;35.80;;;;;;4975478;28;20522;-53
2023/09/14 12:08:17;;;;;;;1.00;0.40;;;24.80;35.00;;;;;;4975422;28;20446;-51
2023/09/14 12:10:45;;;;;;;1.10;0.60;;;24.80;36.40;;;;;;4975412;28;20412;-48
2023/09/14 12:13:18;;;;;;;1.30;0.60;;;24.70;34.20;;;;;;4975437;28;20417;-53
2023/09/14 12:15:46;;;;;;;1.10;0.63;;;24.70;36.60;;;;;;4975381;28;20439;-53
2023/09/14 12:18:16;;;;;;;1.30;0.80;;;24.80;37.00;;;;;;4975262;28;20411;-50
2023/09/14 12:20:45;;;;;;;1.00;0.50;;;24.90;37.00;;;;;;4974439;28;20880;-51
2023/09/14 12:23:12;;;;;;;1.20;0.60;;;25.00;37.30;;;;;;4975447;28;20411;-53
2023/09/14 12:25:38;;;;;;;1.10;0.50;;;25.00;36.10;;;;;;4973797;28;20447;-50
2023/09/14 12:28:07;;;;;;;1.13;0.60;;;24.90;36.80;;;;;;4975109;28;20985;-51
2023/09/14 12:30:34;;;;;;;1.00;0.40;;;25.00;37.00;;;;;;4975112;28;20420;-53
2023/09/14 12:33:04;;;;;;;1.10;0.50;;;25.10;36.20;;;;;;4974918;28;20407;-50
2023/09/14 12:35:30;;;;;;;1.10;0.47;;;25.10;36.30;;;;;;4974835;28;20411;-50
2023/09/14 12:38:03;;;;;;;1.00;0.40;;;25.20;36.30;;;;;;4975139;28;20410;-51
2023/09/14 12:40:37;;;;;;;1.33;0.77;;;25.40;36.50;;;;;;4975023;28;20468;-50
2023/09/14 12:43:03;;;;;;;1.33;0.90;;;25.30;36.40;;;;;;4974833;28;20494;-51
2023/09/14 12:45:33;;;;;;;1.00;0.40;;;25.40;36.40;;;;;;4974802;28;20412;-52
2023/09/14 12:48:03;;;;;;;1.00;0.30;;;25.40;36.60;;;;;;4974663;28;20790;-52
2023/09/14 12:50:31;;;;;;;1.33;0.80;;;25.30;35.10;;;;;;4974893;28;20442;-50